OAW74 LSZH-LSZB
Flight info
| Callsign | OAW74 |
|---|---|
| Flight time | 0h 18m |
| Altitude | 7000 |
| Route | VEBIT T544 WIL/N0282F090 Z601 ROTOS |
| Aircraft | E190/M-SDE3GILORVW/S |
Departure
| Time | 2026-05-04 19:07 |
|---|---|
| Airport | Zürich Airport (LSZH) |
Arrival
| Time | 2026-05-04 19:25 |
|---|---|
| Airport | Bern Airport (LSZB) |
| Time | Latitude | Longitude | Altitude | Speed | Heading |
|---|---|---|---|---|---|
| 2026-05-04 18:43 | 47.44089 | 8.56208 | 1400 ft | 0 kts | 245° |
| 2026-05-04 18:48 | 47.44090 | 8.56208 | 1400 ft | 0 kts | 245° |
| 2026-05-04 18:55 | 47.44096 | 8.56228 | 1410 ft | 4 kts | 249° |
| 2026-05-04 18:55 | 47.44095 | 8.56287 | 1407 ft | 0 kts | 335° |
| 2026-05-04 18:57 | 47.44103 | 8.56282 | 1405 ft | 4 kts | 336° |
| 2026-05-04 18:58 | 47.44151 | 8.56250 | 1409 ft | 11 kts | 335° |
| 2026-05-04 18:58 | 47.44221 | 8.56201 | 1400 ft | 7 kts | 334° |
| 2026-05-04 18:58 | 47.44230 | 8.56195 | 1407 ft | 3 kts | 334° |
| 2026-05-04 18:58 | 47.44260 | 8.56174 | 1399 ft | 6 kts | 335° |
| 2026-05-04 18:59 | 47.44307 | 8.56141 | 1403 ft | 9 kts | 335° |
| 2026-05-04 18:59 | 47.44367 | 8.56094 | 1407 ft | 10 kts | 326° |
| 2026-05-04 18:59 | 47.44426 | 8.56040 | 1404 ft | 4 kts | 335° |
| 2026-05-04 18:59 | 47.44426 | 8.56039 | 1404 ft | 0 kts | 335° |
| 2026-05-04 19:00 | 47.44431 | 8.56036 | 1402 ft | 3 kts | 335° |
| 2026-05-04 19:00 | 47.44463 | 8.56014 | 1401 ft | 8 kts | 335° |
| 2026-05-04 19:00 | 47.44527 | 8.55969 | 1401 ft | 13 kts | 334° |
| 2026-05-04 19:00 | 47.44613 | 8.55909 | 1401 ft | 15 kts | 335° |
| 2026-05-04 19:01 | 47.44721 | 8.55836 | 1393 ft | 18 kts | 334° |
| 2026-05-04 19:01 | 47.44841 | 8.55754 | 1399 ft | 20 kts | 335° |
| 2026-05-04 19:01 | 47.44965 | 8.55670 | 1401 ft | 16 kts | 335° |
| 2026-05-04 19:01 | 47.45067 | 8.55601 | 1403 ft | 16 kts | 335° |
| 2026-05-04 19:02 | 47.45176 | 8.55526 | 1403 ft | 18 kts | 330° |
| 2026-05-04 19:02 | 47.45276 | 8.55457 | 1406 ft | 17 kts | 335° |
| 2026-05-04 19:02 | 47.45401 | 8.55371 | 1401 ft | 22 kts | 335° |
| 2026-05-04 19:02 | 47.45556 | 8.55263 | 1401 ft | 26 kts | 335° |
| 2026-05-04 19:03 | 47.45663 | 8.55218 | 1400 ft | 7 kts | 26° |
| 2026-05-04 19:03 | 47.45678 | 8.55276 | 1397 ft | 11 kts | 93° |
| 2026-05-04 19:03 | 47.45672 | 8.55392 | 1402 ft | 13 kts | 95° |
| 2026-05-04 19:03 | 47.45661 | 8.55534 | 1408 ft | 15 kts | 96° |
| 2026-05-04 19:04 | 47.45646 | 8.55727 | 1411 ft | 22 kts | 96° |
| 2026-05-04 19:04 | 47.45630 | 8.55966 | 1411 ft | 23 kts | 95° |
| 2026-05-04 19:04 | 47.45613 | 8.56208 | 1411 ft | 24 kts | 96° |
| 2026-05-04 19:04 | 47.45595 | 8.56453 | 1413 ft | 24 kts | 96° |
| 2026-05-04 19:05 | 47.45578 | 8.56695 | 1417 ft | 23 kts | 96° |
| 2026-05-04 19:05 | 47.45564 | 8.56898 | 1419 ft | 9 kts | 95° |
| 2026-05-04 19:05 | 47.45560 | 8.56999 | 1419 ft | 7 kts | 79° |
| 2026-05-04 19:05 | 47.45574 | 8.57021 | 1421 ft | 0 kts | 33° |
| 2026-05-04 19:06 | 47.45593 | 8.57022 | 1422 ft | 11 kts | 0° |
| 2026-05-04 19:06 | 47.45636 | 8.57025 | 1423 ft | 2 kts | 5° |
| 2026-05-04 19:06 | 47.45661 | 8.57019 | 1423 ft | 7 kts | 340° |
| 2026-05-04 19:06 | 47.45670 | 8.56918 | 1422 ft | 23 kts | 274° |
| 2026-05-04 19:07 | 47.45714 | 8.56289 | 1413 ft | 101 kts | 276° |
| 2026-05-04 19:07 | 47.45830 | 8.54920 | 1527 ft | 155 kts | 275° |
| 2026-05-04 19:07 | 47.45944 | 8.53190 | 2064 ft | 179 kts | 275° |
| 2026-05-04 19:07 | 47.46059 | 8.51393 | 2139 ft | 170 kts | 275° |
| 2026-05-04 19:08 | 47.46163 | 8.49780 | 2362 ft | 160 kts | 275° |
| 2026-05-04 19:08 | 47.46261 | 8.48097 | 3040 ft | 165 kts | 273° |
| 2026-05-04 19:08 | 47.46232 | 8.46245 | 3385 ft | 200 kts | 266° |
| 2026-05-04 19:08 | 47.46052 | 8.44118 | 3551 ft | 215 kts | 261° |
| 2026-05-04 19:09 | 47.45747 | 8.41814 | 3488 ft | 255 kts | 258° |
| 2026-05-04 19:09 | 47.45300 | 8.39190 | 4522 ft | 256 kts | 255° |
| 2026-05-04 19:09 | 47.44798 | 8.36681 | 5770 ft | 260 kts | 251° |
| 2026-05-04 19:09 | 47.44207 | 8.34053 | 5970 ft | 276 kts | 249° |
| 2026-05-04 19:10 | 47.43443 | 8.31544 | 6461 ft | 262 kts | 240° |
| 2026-05-04 19:10 | 47.42523 | 8.29138 | 6963 ft | 275 kts | 238° |
| 2026-05-04 19:10 | 47.41524 | 8.26722 | 6786 ft | 270 kts | 236° |
| 2026-05-04 19:10 | 47.40520 | 8.24418 | 6871 ft | 267 kts | 236° |
| 2026-05-04 19:11 | 47.39854 | 8.22897 | 7037 ft | 265 kts | 236° |
| 2026-05-04 19:11 | 47.38836 | 8.20577 | 7027 ft | 270 kts | 236° |
| 2026-05-04 19:11 | 47.37817 | 8.18259 | 7014 ft | 269 kts | 236° |
| 2026-05-04 19:11 | 47.36803 | 8.15954 | 7002 ft | 267 kts | 235° |
| 2026-05-04 19:12 | 47.35790 | 8.13654 | 7013 ft | 267 kts | 235° |
| 2026-05-04 19:12 | 47.33768 | 8.09059 | 7018 ft | 267 kts | 236° |
| 2026-05-04 19:12 | 47.32754 | 8.06761 | 7021 ft | 267 kts | 236° |
| 2026-05-04 19:13 | 47.31739 | 8.04464 | 7018 ft | 267 kts | 235° |
| 2026-05-04 19:13 | 47.30722 | 8.02171 | 7022 ft | 268 kts | 235° |
| 2026-05-04 19:13 | 47.29701 | 7.99874 | 7014 ft | 268 kts | 235° |
| 2026-05-04 19:13 | 47.28684 | 7.97581 | 7010 ft | 268 kts | 235° |
| 2026-05-04 19:14 | 47.27666 | 7.95287 | 7016 ft | 268 kts | 235° |
| 2026-05-04 19:14 | 47.26647 | 7.92997 | 7021 ft | 268 kts | 235° |
| 2026-05-04 19:14 | 47.25626 | 7.90701 | 7018 ft | 267 kts | 235° |
| 2026-05-04 19:14 | 47.24619 | 7.88437 | 7012 ft | 267 kts | 235° |
| 2026-05-04 19:15 | 47.23717 | 7.86413 | 7019 ft | 267 kts | 235° |
| 2026-05-04 19:15 | 47.22697 | 7.84127 | 7023 ft | 267 kts | 235° |
| 2026-05-04 19:15 | 47.21677 | 7.81845 | 7014 ft | 267 kts | 235° |
| 2026-05-04 19:15 | 47.20652 | 7.79555 | 7023 ft | 267 kts | 235° |
| 2026-05-04 19:16 | 47.19638 | 7.77292 | 7015 ft | 259 kts | 235° |
| 2026-05-04 19:16 | 47.18679 | 7.75148 | 6987 ft | 244 kts | 235° |
| 2026-05-04 19:16 | 47.17773 | 7.73123 | 6944 ft | 231 kts | 234° |
| 2026-05-04 19:16 | 47.16910 | 7.71191 | 7003 ft | 222 kts | 234° |
| 2026-05-04 19:17 | 47.16053 | 7.69275 | 7025 ft | 227 kts | 234° |
| 2026-05-04 19:17 | 47.15194 | 7.67316 | 7023 ft | 229 kts | 241° |
| 2026-05-04 19:17 | 47.14866 | 7.65041 | 7055 ft | 231 kts | 264° |
| 2026-05-04 19:17 | 47.14568 | 7.62724 | 7060 ft | 231 kts | 250° |
| 2026-05-04 19:18 | 47.14053 | 7.60520 | 7063 ft | 230 kts | 249° |
| 2026-05-04 19:18 | 47.13552 | 7.58289 | 7068 ft | 230 kts | 250° |
| 2026-05-04 19:18 | 47.13105 | 7.56041 | 7126 ft | 227 kts | 252° |
| 2026-05-04 19:18 | 47.12690 | 7.53800 | 7218 ft | 230 kts | 252° |
| 2026-05-04 19:19 | 47.12275 | 7.51518 | 7119 ft | 234 kts | 252° |
| 2026-05-04 19:19 | 47.11861 | 7.49224 | 7022 ft | 229 kts | 252° |
| 2026-05-04 19:19 | 47.11457 | 7.46979 | 7019 ft | 227 kts | 252° |
| 2026-05-04 19:19 | 47.11052 | 7.44739 | 7006 ft | 227 kts | 252° |
| 2026-05-04 19:20 | 47.10661 | 7.42483 | 6991 ft | 229 kts | 257° |
| 2026-05-04 19:20 | 47.10579 | 7.40145 | 6975 ft | 231 kts | 271° |
| 2026-05-04 19:20 | 47.10510 | 7.37825 | 6936 ft | 227 kts | 248° |
| 2026-05-04 19:20 | 47.09565 | 7.36071 | 6899 ft | 222 kts | 208° |
| 2026-05-04 19:21 | 47.08090 | 7.35508 | 6905 ft | 221 kts | 187° |
| 2026-05-04 19:21 | 47.06531 | 7.35337 | 6683 ft | 225 kts | 178° |
| 2026-05-04 19:21 | 47.04978 | 7.35675 | 6261 ft | 226 kts | 168° |
| 2026-05-04 19:21 | 47.03448 | 7.36194 | 5694 ft | 225 kts | 170° |
| 2026-05-04 19:22 | 47.01933 | 7.36710 | 5137 ft | 225 kts | 157° |
| 2026-05-04 19:22 | 47.00709 | 7.38157 | 4685 ft | 225 kts | 136° |
| 2026-05-04 19:22 | 46.99640 | 7.39711 | 4381 ft | 207 kts | 141° |
| 2026-05-04 19:22 | 46.98560 | 7.40938 | 4054 ft | 186 kts | 144° |
| 2026-05-04 19:23 | 46.97611 | 7.42078 | 3739 ft | 166 kts | 141° |
| 2026-05-04 19:23 | 46.96791 | 7.43125 | 3442 ft | 148 kts | 141° |
| 2026-05-04 19:23 | 46.96027 | 7.44051 | 3185 ft | 139 kts | 142° |
| 2026-05-04 19:23 | 46.95302 | 7.44938 | 2936 ft | 137 kts | 141° |
| 2026-05-04 19:24 | 46.94568 | 7.45845 | 2664 ft | 138 kts | 141° |
| 2026-05-04 19:24 | 46.93825 | 7.46752 | 2399 ft | 139 kts | 140° |
| 2026-05-04 19:24 | 46.93086 | 7.47657 | 2148 ft | 139 kts | 140° |
| 2026-05-04 19:24 | 46.92351 | 7.48562 | 1900 ft | 137 kts | 140° |
| 2026-05-04 19:25 | 46.91625 | 7.49450 | 1680 ft | 130 kts | 140° |
| 2026-05-04 19:25 | 46.91055 | 7.50148 | 1683 ft | 78 kts | 140° |
| 2026-05-04 19:25 | 46.90785 | 7.50481 | 1683 ft | 21 kts | 140° |
| 2026-05-04 19:25 | 46.90727 | 7.50568 | 1682 ft | 4 kts | 159° |
| 2026-05-04 19:26 | 46.90724 | 7.50550 | 1686 ft | 1 kts | 280° |
| 2026-05-04 19:26 | 46.90754 | 7.50516 | 1683 ft | 10 kts | 320° |
| 2026-05-04 19:26 | 46.90816 | 7.50441 | 1684 ft | 12 kts | 321° |
| 2026-05-04 19:26 | 46.90893 | 7.50363 | 1680 ft | 6 kts | 355° |
| 2026-05-04 19:27 | 46.90922 | 7.50390 | 1681 ft | 15 kts | 42° |
| 2026-05-04 19:27 | 46.90981 | 7.50390 | 1686 ft | 7 kts | 325° |
| 2026-05-04 19:27 | 46.91047 | 7.50314 | 1684 ft | 25 kts | 322° |
| 2026-05-04 19:27 | 46.91192 | 7.50132 | 1683 ft | 28 kts | 319° |
| 2026-05-04 19:28 | 46.91265 | 7.50071 | 1685 ft | 2 kts | 46° |
| 2026-05-04 19:28 | 46.91256 | 7.50098 | 1685 ft | 8 kts | 116° |
| 2026-05-04 19:28 | 46.91261 | 7.50130 | 1683 ft | 2 kts | 36° |
| 2026-05-04 19:28 | 46.91273 | 7.50132 | 1687 ft | 0 kts | 7° |